Scottish Airport Reports

Civil airfields updated at H+20 and H+50
RAF airfields updated at H+50 only

EGPD - Aberdeen
Distance from station: NNE 19mi, 31km
Updated: 02/12/2020 21:20
Clear
Clear
 Wind from SW
Wind: SW 14 mph , 22 km/h
Temperature: 2°C
Wind Chill: -3°C
Dew Point: 1°C
Humidity: 93%
Barometer: 998 hPa
Clouds: Clear
Visibility: 6 miles , 10 km
2020/12/02 21:20 EGPD 022120Z AUTO 22012KT 9999 NCD 02/01 Q0998 NOSIG
EGPN - Dundee
Distance from station: SW 41mi, 66km
Updated: 02/12/2020 20:20
Few Clouds
Few Clouds
 Wind from SW
Wind: SW 10 mph , 17 km/h
Temperature: 6°C
Wind Chill: 3°C
Dew Point: 3°C
Humidity: 81%
Barometer: 1001 hPa
Clouds: Few Clouds
Visibility: 6 miles , 10 km
Cloud details: Few Clouds 2100 ft
2020/12/02 20:20 EGPN 022020Z 22009KT 9999 FEW021 06/03 Q1001
 
EGQS - RAF Lossiemouth
Distance from station: NNW 63mi, 102km
Updated: 02/12/2020 20:50
Clear
Clear
 Wind from SSW
Wind: SSW 6 mph , 9 km/h
Temperature: 1°C
Wind Chill: -2°C
Dew Point: -1°C
Humidity: 87%
Barometer: 997 hPa
Summary: Clear
Visibility: greater than 7 miles , 10 km
2020/12/02 20:50 EGQS 022050Z 21005KT CAVOK 01/M01 Q0997 RMK BLU
EGPE - Inverness
Distance from station: WNW 73mi, 117km
Updated: 02/12/2020 21:20
Nearby showers, Few clouds
Nearby showers, Few clouds
 Wind from SSW
Wind: SSW 8 mph , 13 km/h
Temperature: 2°C
Wind Chill: -1°C
Dew Point: 1°C
Humidity: 93%
Barometer: 996 hPa
Summary: Nearby Showers
Clouds: Few Clouds
Visibility: 6 miles , 10 km
Cloud details: Few Clouds 1100 ft
Few Clouds 2000 ft
2020/12/02 21:20 EGPE 022120Z 20007KT 9999 VCSH FEW011 FEW020CB 02/01 Q0996 RESHRA RESN
 
EGPH - Edinburgh
Distance from station: SSW 77mi, 125km
Updated: 02/12/2020 21:20
Light rain, Mostly cloudy
Light rain, Mostly cloudy
 Wind from WSW
Wind: WSW 12 mph , 19 km/h
Temperature: 3°C
Wind Chill: -2°C
Dew Point: 2°C
Humidity: 93%
Barometer: 1000 hPa
Summary: Light rain
Clouds: Mostly cloudy
Visibility: 6 miles , 10 km
Cloud details: Few Clouds 800 ft
Mostly cloudy 1400 ft
2020/12/02 21:20 EGPH 022120Z 24010KT 9999 -RA FEW008 BKN014 03/02 Q1000
EGPC - Wick
Distance from station: NNW 107mi, 172km
Updated: 02/12/2020 21:20
Few Clouds
Few Clouds
 Wind from S
Wind: S 7 mph , 11 km/h
Temperature: 3°C
Wind Chill: 0°C
Dew Point: 1°C
Humidity: 87%
Barometer: 995 hPa
Clouds: Few Clouds
Visibility: 6 miles , 10 km
Cloud details: Few Clouds 1800 ft
2020/12/02 21:20 EGPC 022120Z 19006KT 160V220 9999 FEW018CB 03/01 Q0995
 
EGPF - Glasgow
Distance from station: SW 107mi, 172km
Updated: 02/12/2020 21:20
Light rain, Thunderstorm
Light rain, Thunderstorm
 Wind from SW
Wind: SW 12 mph , 19 km/h
Temperature: 4°C
Wind Chill: 0°C
Dew Point: 3°C
Humidity: 93%
Barometer: 1001 hPa
Summary: Light rain
Clouds: Thunderstorm
Visibility: 4 miles , 7 km
Cloud details: Few Clouds 1700 ft
Mostly cloudy 2100 ft
Mostly cloudy 2800 ft
2020/12/02 21:20 EGPF 022120Z AUTO 23010KT 7000 -RA FEW017/// BKN021/// BKN028/// //////TCU 04/03 Q1001
EGPK - Prestwick
Distance from station: SW 130mi, 209km
Updated: 02/12/2020 21:20
Partly cloudy
Partly cloudy
 Wind from WSW
Wind: WSW 17 mph , 28 km/h
Temperature: 6°C
Wind Chill: 2°C
Dew Point: 3°C
Humidity: 81%
Barometer: 1001 hPa
Clouds: Partly cloudy
Visibility: 6 miles , 10 km
Cloud details: Few Clouds 1500 ft
Partly cloudy 2200 ft
2020/12/02 21:20 EGPK 022120Z 25015KT 9999 FEW015 SCT022 06/03 Q1001
 
EGPA - Kirkwall, Orkney
Distance from station: N 140mi, 225km
Updated: 02/12/2020 21:20
Clear
Clear
 Wind from SW
Wind: SW 25 mph , 41 km/h
Temperature: 3°C
Wind Chill: -4°C
Dew Point: 0°C
Humidity: 81%
Barometer: 994 hPa
Clouds: Clear
Visibility: 6 miles , 10 km
2020/12/02 21:20 EGPA 022120Z AUTO 22022KT 9999 NCD 03/00 Q0994
EGPO - Stornoway, Outer Hebrides
Distance from station: WNW 169mi, 273km
Updated: 02/12/2020 21:20
Clear
Clear
 Wind from SW
Wind: SW 13 mph , 20 km/h
Temperature: 2°C
Wind Chill: -3°C
Dew Point: 1°C
Humidity: 93%
Barometer: 993 hPa
Clouds: Clear
Visibility: 6 miles , 10 km
2020/12/02 21:20 EGPO 022120Z AUTO 22011KT 9999 NCD 02/01 Q0993
 
EGPI - Islay, Inner Hebrides
Distance from station: WSW 172mi, 276km
Updated: 02/12/2020 20:50
Few Clouds
Few Clouds
 Wind from WSW
Wind: WSW 23 mph , 37 km/h
Temperature: 6°C
Wind Chill: 1°C
Dew Point: 3°C
Humidity: 81%
Barometer: 1000 hPa
Clouds: Few Clouds
Visibility: 6 miles , 10 km
Cloud details: Few Clouds 2400 ft
2020/12/02 20:50 EGPI 022050Z AUTO 25020KT 090V150 9999 FEW024/// 06/03 Q1000 RERA
EGPU - Tiree, Inner Hebrides
Distance from station: W 172mi, 276km
Updated: 02/12/2020 20:50
Partly cloudy
Partly cloudy
 Wind from W
Wind: W 17 mph , 28 km/h
Temperature: 4°C
Wind Chill: -1°C
Dew Point: 1°C
Humidity: 81%
Barometer: 997 hPa
Clouds: Partly cloudy
Visibility: 6 miles , 10 km
Cloud details: Partly cloudy 2900 ft
Partly cloudy 3500 ft
2020/12/02 20:50 EGPU 022050Z AUTO 27015KT 9999 SCT029/// SCT035/// 04/01 Q0997 RERA
 
EGPB - Sumburgh, Shetland
Distance from station: NNE 208mi, 332km
Updated: 02/12/2020 21:20
Mostly cloudy
Mostly cloudy
 Wind from SW
Wind: SW 24 mph , 39 km/h
Temperature: 6°C
Wind Chill: 1°C
Dew Point: 2°C
Humidity: 76%
Barometer: 994 hPa
Clouds: Mostly cloudy
Visibility: 6 miles , 10 km
Cloud details: Few Clouds 1700 ft
Mostly cloudy 2600 ft
Mostly cloudy 4400 ft
2020/12/02 21:20 EGPB 022120Z AUTO 23021KT 9999 FEW017/// BKN026/// BKN044/// 06/02 Q0994 RERA
-->